Grandin, Florida
Current Conditions -  °F | °C
As of 2:53 AM on Tuesday 21 Oct 2014 (Local Time) from KGNV Reporting Station
Clear Clear  
Wind Chill: 64°   Ceiling: Unl
Heat Index: 64°   Visibility: 10mi
Dew Point: 63°   Wind: 3mph
Humidity: 96%   Direction: 260°W
Pressure: 29.97"   Gusts: NA
Location:  29.73°N, 81.92°W
Report Text: KGNV 210653Z AUTO 26003KT 10SM CLR 18/17 A2997 RMK AO2 SLP146 T01780172
Loading
Personal Weather Stations






























Interactive Weather Map New forecast layout! Learn more

10-Day Weather Forecast

Advertisements
Track Severe Weather on mobile